createdAt,value
2023-03-30T00:01:37.382Z,15.40
2023-03-30T00:04:27.624Z,15.30
2023-03-30T00:07:16.108Z,15.30
2023-03-30T00:10:06.452Z,15.00
2023-03-30T00:12:55.152Z,15.30
2023-03-30T00:15:45.164Z,15.60
2023-03-30T00:18:35.380Z,15.60
2023-03-30T00:21:22.984Z,15.50
2023-03-30T00:24:10.407Z,16.10
2023-03-30T00:26:58.936Z,15.80
2023-03-30T00:29:50.956Z,15.40
2023-03-30T00:32:38.539Z,15.50
2023-03-30T00:35:26.649Z,15.50
2023-03-30T00:38:14.308Z,15.30
2023-03-30T00:41:02.358Z,13.50
2023-03-30T00:43:57.049Z,15.30
2023-03-30T00:46:46.416Z,15.20
2023-03-30T00:49:34.907Z,15.00
2023-03-30T00:52:28.102Z,14.90
2023-03-30T00:55:16.268Z,14.90
2023-03-30T00:58:04.194Z,15.10
2023-03-30T01:00:51.821Z,14.90
2023-03-30T01:03:43.779Z,14.80
2023-03-30T01:06:32.045Z,14.60
2023-03-30T01:09:19.626Z,14.80
2023-03-30T01:12:07.605Z,15.80
2023-03-30T01:14:55.578Z,14.80
2023-03-30T01:17:49.923Z,14.80
2023-03-30T01:20:50.873Z,14.80
2023-03-30T01:23:53.367Z,14.70
2023-03-30T01:26:50.746Z,14.60
2023-03-30T01:29:53.926Z,14.50
2023-03-30T01:33:00.417Z,14.70
2023-03-30T01:36:05.713Z,14.50
2023-03-30T01:39:05.264Z,14.80
2023-03-30T01:41:57.134Z,14.60
2023-03-30T01:44:48.239Z,14.60
2023-03-30T01:47:38.167Z,14.60
2023-03-30T01:50:26.794Z,14.50
2023-03-30T01:53:17.696Z,14.40
2023-03-30T01:56:09.603Z,14.40
2023-03-30T01:59:00.404Z,14.40
2023-03-30T02:01:50.376Z,14.20
2023-03-30T02:04:40.441Z,14.10
2023-03-30T02:07:29.977Z,14.00
2023-03-30T02:10:18.993Z,13.90
2023-03-30T02:13:08.981Z,13.80
2023-03-30T02:15:59.311Z,14.10
2023-03-30T02:18:47.691Z,14.40
2023-03-30T02:21:35.526Z,14.00
2023-03-30T02:24:25.815Z,14.00
2023-03-30T02:27:14.527Z,13.80
2023-03-30T02:30:03.800Z,13.90
2023-03-30T02:32:54.351Z,14.10
2023-03-30T02:35:52.034Z,14.00
2023-03-30T02:39:00.922Z,14.20
2023-03-30T02:41:59.467Z,14.30
2023-03-30T02:44:49.749Z,14.40
2023-03-30T02:47:45.368Z,14.40
2023-03-30T02:50:35.180Z,14.40
2023-03-30T02:53:34.011Z,14.40
2023-03-30T02:56:25.488Z,14.40
2023-03-30T02:59:19.724Z,14.30
2023-03-30T03:02:08.621Z,14.30
2023-03-30T03:04:57.799Z,14.40
2023-03-30T03:07:58.401Z,15.00
2023-03-30T03:10:45.980Z,14.60
2023-03-30T03:13:36.986Z,14.50
2023-03-30T03:16:24.924Z,14.90
2023-03-30T03:19:32.922Z,15.00
2023-03-30T03:22:22.742Z,14.80
2023-03-30T03:25:11.917Z,16.30
2023-03-30T03:28:29.043Z,14.50
2023-03-30T03:31:24.520Z,14.20
2023-03-30T03:34:12.234Z,14.00
2023-03-30T03:37:14.612Z,14.10
2023-03-30T03:40:06.895Z,14.30
2023-03-30T03:42:54.779Z,14.30
2023-03-30T03:45:42.689Z,14.60
2023-03-30T03:48:30.179Z,14.50
2023-03-30T03:51:17.882Z,14.80
2023-03-30T03:54:05.621Z,14.60
2023-03-30T03:56:56.011Z,14.50
2023-03-30T03:59:43.926Z,15.20
2023-03-30T04:02:35.597Z,14.20
2023-03-30T04:05:23.318Z,14.60
2023-03-30T04:08:12.390Z,14.10
2023-03-30T04:11:08.252Z,14.20
2023-03-30T04:14:27.446Z,14.20
2023-03-30T04:17:35.479Z,14.20
2023-03-30T04:21:03.220Z,14.10
2023-03-30T04:24:26.113Z,15.00
2023-03-30T04:27:52.075Z,14.10
2023-03-30T04:31:10.707Z,14.20
2023-03-30T04:34:02.745Z,14.20
2023-03-30T04:37:30.430Z,14.30
2023-03-30T04:40:50.890Z,14.20
2023-03-30T04:43:38.512Z,14.50
2023-03-30T04:46:44.353Z,14.10
2023-03-30T04:49:54.777Z,12.00
2023-03-30T04:53:01.056Z,15.70
2023-03-30T04:56:08.810Z,14.10
2023-03-30T04:59:02.480Z,14.10
2023-03-30T05:02:16.463Z,14.10
2023-03-30T05:05:23.128Z,14.10
2023-03-30T05:08:33.185Z,14.00
2023-03-30T05:11:33.498Z,14.10
2023-03-30T05:14:47.659Z,14.10
2023-03-30T05:18:05.215Z,14.00
2023-03-30T05:21:20.654Z,13.90
2023-03-30T05:24:26.838Z,13.90
2023-03-30T05:27:30.116Z,14.10
2023-03-30T05:30:25.808Z,13.80
2023-03-30T05:33:34.982Z,13.60
2023-03-30T05:36:48.443Z,12.40
2023-03-30T05:39:55.046Z,12.90
2023-03-30T05:43:05.572Z,12.70
2023-03-30T05:46:13.322Z,12.50
2023-03-30T05:49:12.093Z,11.80
2023-03-30T05:52:18.799Z,12.20
2023-03-30T05:55:12.721Z,12.20
2023-03-30T05:58:13.473Z,12.20
2023-03-30T06:01:13.630Z,12.20
2023-03-30T06:04:04.140Z,12.20
2023-03-30T06:06:56.824Z,13.60
2023-03-30T06:09:45.422Z,12.20
2023-03-30T06:12:42.228Z,12.10
2023-03-30T06:15:42.155Z,12.30
2023-03-30T06:18:33.740Z,12.50
2023-03-30T06:21:25.398Z,12.10
2023-03-30T06:24:46.835Z,12.50
2023-03-30T06:27:35.420Z,12.50
2023-03-30T06:30:23.666Z,12.40
2023-03-30T06:33:14.551Z,12.50
2023-03-30T06:36:11.289Z,12.70
2023-03-30T06:38:59.593Z,12.70
2023-03-30T06:41:53.160Z,12.70
2023-03-30T06:44:57.502Z,12.80
2023-03-30T06:47:45.220Z,13.30
2023-03-30T06:50:33.290Z,10.80
2023-03-30T06:53:27.255Z,12.80
2023-03-30T06:56:15.409Z,12.50
2023-03-30T06:59:21.981Z,12.50
2023-03-30T07:02:34.082Z,12.30
2023-03-30T07:05:42.726Z,10.00
2023-03-30T07:08:56.515Z,13.20
2023-03-30T07:11:46.469Z,12.10
2023-03-30T07:14:38.158Z,12.00
2023-03-30T07:17:27.655Z,12.00
2023-03-30T07:20:16.212Z,12.00
2023-03-30T07:23:22.928Z,12.00
2023-03-30T07:26:12.765Z,12.00
2023-03-30T07:29:13.231Z,12.00
2023-03-30T07:32:06.262Z,11.90
2023-03-30T07:34:54.468Z,12.50
2023-03-30T07:37:42.027Z,12.30
2023-03-30T07:40:29.662Z,12.70
2023-03-30T07:43:18.274Z,14.20
2023-03-30T07:46:06.553Z,12.90
2023-03-30T07:49:00.332Z,12.80
2023-03-30T07:51:48.418Z,12.90
2023-03-30T07:54:44.936Z,12.80
2023-03-30T07:57:37.366Z,15.10
2023-03-30T08:00:25.141Z,12.90
2023-03-30T08:03:33.236Z,12.60
2023-03-30T08:06:25.707Z,12.60
2023-03-30T08:09:17.549Z,12.60
2023-03-30T08:12:05.992Z,13.00
2023-03-30T08:14:55.820Z,12.80
2023-03-30T08:17:43.922Z,12.80
2023-03-30T08:20:31.844Z,12.90
2023-03-30T08:23:21.784Z,13.00
2023-03-30T08:26:10.041Z,12.90
2023-03-30T08:28:57.632Z,12.90
2023-03-30T08:31:47.267Z,14.00
2023-03-30T08:34:36.891Z,12.80
2023-03-30T08:37:25.336Z,12.80
2023-03-30T08:40:17.798Z,13.00
2023-03-30T08:43:19.397Z,12.90
2023-03-30T08:46:10.238Z,12.80
2023-03-30T08:49:02.785Z,12.60
2023-03-30T08:51:52.137Z,12.50
2023-03-30T08:54:40.404Z,12.40
2023-03-30T08:57:36.195Z,12.70
2023-03-30T09:00:28.130Z,12.40
2023-03-30T09:03:18.509Z,12.60
2023-03-30T09:06:09.311Z,12.60
2023-03-30T09:08:57.536Z,12.70
2023-03-30T09:11:47.643Z,12.90
2023-03-30T09:14:45.566Z,13.70
2023-03-30T09:17:35.288Z,13.70
2023-03-30T09:20:24.552Z,14.20
2023-03-30T09:23:17.828Z,14.40
2023-03-30T09:26:10.391Z,14.30
2023-03-30T09:29:03.948Z,15.50
2023-03-30T09:31:56.713Z,14.50
2023-03-30T09:34:47.471Z,15.90
2023-03-30T09:37:36.143Z,14.60
2023-03-30T09:40:28.410Z,15.30
2023-03-30T09:43:17.629Z,14.50
2023-03-30T09:46:07.662Z,14.80
2023-03-30T09:49:12.712Z,14.50
2023-03-30T09:52:03.863Z,14.60
2023-03-30T09:54:51.264Z,14.20
2023-03-30T09:57:39.448Z,14.20
2023-03-30T10:00:29.659Z,13.90
2023-03-30T10:03:21.052Z,13.90
2023-03-30T10:06:13.298Z,14.30
2023-03-30T10:09:00.881Z,14.10
2023-03-30T10:11:53.172Z,13.70
2023-03-30T10:14:41.065Z,13.40
2023-03-30T10:17:29.224Z,13.50
2023-03-30T10:20:29.986Z,13.60
2023-03-30T10:23:22.228Z,13.70
2023-03-30T10:26:13.472Z,13.40
2023-03-30T10:29:04.718Z,12.80
2023-03-30T10:32:01.272Z,13.10
2023-03-30T10:34:52.044Z,11.80
2023-03-30T10:37:41.514Z,11.60
2023-03-30T10:40:34.918Z,12.00
2023-03-30T10:43:25.821Z,11.10
2023-03-30T10:46:20.045Z,11.10
2023-03-30T10:49:19.738Z,11.40
2023-03-30T10:52:10.844Z,11.40
2023-03-30T10:55:00.768Z,11.30
2023-03-30T10:57:52.138Z,11.10
2023-03-30T11:00:47.321Z,11.00
2023-03-30T11:03:35.753Z,9.00
2023-03-30T11:06:26.344Z,11.20
2023-03-30T11:09:16.456Z,11.70
2023-03-30T11:12:06.515Z,11.80
2023-03-30T11:14:58.134Z,12.20
2023-03-30T11:17:51.708Z,12.70
2023-03-30T11:20:45.399Z,12.80
2023-03-30T11:23:37.822Z,15.10
2023-03-30T11:26:33.737Z,13.80
2023-03-30T11:29:28.908Z,15.40
2023-03-30T11:32:24.082Z,13.20
2023-03-30T11:35:17.465Z,13.00
2023-03-30T11:38:10.586Z,13.00
2023-03-30T11:41:00.543Z,13.30
2023-03-30T11:43:50.227Z,13.50
2023-03-30T11:46:42.121Z,13.50
2023-03-30T11:49:42.968Z,14.20
2023-03-30T11:52:33.483Z,13.80
2023-03-30T11:55:39.973Z,12.10
2023-03-30T11:58:32.407Z,16.20
2023-03-30T12:01:26.638Z,15.20
2023-03-30T12:04:16.170Z,15.20
2023-03-30T12:07:06.534Z,14.20
2023-03-30T12:09:55.999Z,15.70
2023-03-30T12:12:45.989Z,15.80
2023-03-30T12:15:38.125Z,16.30
2023-03-30T12:18:30.404Z,16.10
2023-03-30T12:21:27.289Z,15.60
2023-03-30T12:24:18.852Z,15.00
2023-03-30T12:27:09.066Z,14.70
2023-03-30T12:30:12.077Z,15.30
2023-03-30T12:33:01.503Z,15.70
2023-03-30T12:35:54.139Z,16.70
2023-03-30T12:38:44.067Z,16.70
2023-03-30T12:41:41.715Z,17.00
2023-03-30T12:44:35.384Z,16.20
2023-03-30T12:47:33.632Z,16.00
2023-03-30T12:50:32.044Z,15.60
2023-03-30T12:53:28.497Z,15.50
2023-03-30T12:56:19.040Z,15.50
2023-03-30T12:59:18.533Z,15.50
2023-03-30T13:02:27.607Z,16.30
2023-03-30T13:05:20.126Z,16.50
2023-03-30T13:08:10.590Z,16.20
2023-03-30T13:11:07.407Z,16.50
2023-03-30T13:13:56.807Z,17.00
2023-03-30T13:17:07.350Z,17.80
2023-03-30T13:20:28.247Z,16.40
2023-03-30T13:23:28.387Z,16.50
2023-03-30T13:26:34.429Z,16.50
2023-03-30T13:29:26.410Z,16.10
2023-03-30T13:32:22.040Z,16.20
2023-03-30T13:35:28.377Z,18.00
2023-03-30T13:38:34.142Z,16.40
2023-03-30T13:41:32.909Z,16.80
2023-03-30T13:44:35.186Z,16.60
2023-03-30T13:47:42.682Z,17.20
2023-03-30T13:50:34.891Z,19.10
2023-03-30T13:53:25.279Z,17.90
2023-03-30T13:56:15.418Z,17.70
2023-03-30T13:59:06.281Z,17.60
2023-03-30T14:01:58.068Z,17.40
2023-03-30T14:04:49.276Z,15.90
2023-03-30T14:07:43.390Z,17.50
2023-03-30T14:10:32.397Z,17.20
2023-03-30T14:13:19.982Z,17.00
2023-03-30T14:16:08.400Z,17.60
2023-03-30T14:19:08.256Z,16.60
2023-03-30T14:22:00.750Z,16.40
2023-03-30T14:24:57.899Z,16.40
2023-03-30T14:27:48.630Z,18.40
2023-03-30T14:30:36.450Z,18.00
2023-03-30T14:33:25.369Z,19.00
2023-03-30T14:36:16.514Z,17.70
2023-03-30T14:39:10.968Z,18.20
2023-03-30T14:42:00.421Z,17.90
2023-03-30T14:44:50.703Z,15.50
2023-03-30T14:47:38.778Z,16.10
2023-03-30T14:50:27.237Z,15.60
2023-03-30T14:53:15.297Z,15.20
2023-03-30T14:56:12.611Z,14.90
2023-03-30T14:59:01.154Z,14.60
2023-03-30T15:01:49.173Z,14.50
2023-03-30T15:04:38.706Z,14.40
2023-03-30T15:07:30.512Z,14.20
2023-03-30T15:10:23.006Z,13.70
2023-03-30T15:13:20.644Z,13.60
2023-03-30T15:16:08.583Z,13.00
2023-03-30T15:19:01.162Z,13.60
2023-03-30T15:21:53.089Z,13.10
2023-03-30T15:24:42.031Z,13.90
2023-03-30T15:27:31.045Z,13.20
2023-03-30T15:30:27.200Z,13.20
2023-03-30T15:33:22.711Z,13.30
2023-03-30T15:36:16.263Z,13.70
2023-03-30T15:39:05.731Z,13.70
2023-03-30T15:42:01.465Z,13.80
2023-03-30T15:45:02.079Z,14.90
2023-03-30T15:47:51.142Z,14.50
2023-03-30T15:50:38.774Z,14.50
2023-03-30T15:53:34.332Z,14.60
2023-03-30T15:56:24.995Z,14.90
2023-03-30T15:59:14.898Z,14.70
2023-03-30T16:02:03.767Z,14.60
2023-03-30T16:04:52.924Z,15.10
2023-03-30T16:07:42.145Z,16.10
2023-03-30T16:10:32.517Z,15.70
2023-03-30T16:13:20.857Z,14.40
2023-03-30T16:16:11.270Z,14.50
2023-03-30T16:18:59.694Z,14.30
2023-03-30T16:21:53.337Z,14.20
2023-03-30T16:24:44.272Z,14.40
2023-03-30T16:27:33.230Z,14.80
2023-03-30T16:30:25.279Z,14.90
2023-03-30T16:33:12.737Z,14.00
2023-03-30T16:36:00.743Z,16.40
2023-03-30T16:38:50.220Z,14.70
2023-03-30T16:41:40.064Z,12.50
2023-03-30T16:44:29.711Z,15.00
2023-03-30T16:47:20.408Z,15.00
2023-03-30T16:50:22.249Z,16.70
2023-03-30T16:53:10.935Z,15.10
2023-03-30T16:55:59.706Z,15.00
2023-03-30T16:58:47.999Z,14.90
2023-03-30T17:01:36.502Z,15.00
2023-03-30T17:04:24.524Z,15.50
2023-03-30T17:07:15.002Z,13.60
2023-03-30T17:10:03.628Z,15.50
2023-03-30T17:12:53.582Z,14.80
2023-03-30T17:15:41.202Z,14.60
2023-03-30T17:18:28.676Z,14.10
2023-03-30T17:21:17.580Z,13.90
2023-03-30T17:24:05.665Z,14.80
2023-03-30T17:27:12.950Z,13.70
2023-03-30T17:30:01.971Z,13.80
2023-03-30T17:32:51.023Z,14.70
2023-03-30T17:35:39.524Z,13.50
2023-03-30T17:38:30.516Z,13.60
2023-03-30T17:41:19.696Z,13.80
2023-03-30T17:44:07.918Z,14.40
2023-03-30T17:46:57.402Z,12.80
2023-03-30T17:49:46.755Z,14.70
2023-03-30T17:52:34.181Z,12.20
2023-03-30T17:55:22.443Z,15.70
2023-03-30T17:58:15.771Z,12.90
2023-03-30T18:01:05.313Z,12.00
2023-03-30T18:03:54.477Z,12.80
2023-03-30T18:06:43.464Z,12.70
2023-03-30T18:09:31.544Z,12.70
2023-03-30T18:12:21.272Z,12.50
2023-03-30T18:15:09.148Z,12.40
2023-03-30T18:17:58.404Z,12.30
2023-03-30T18:20:48.248Z,12.50
2023-03-30T18:23:37.429Z,12.20
2023-03-30T18:26:25.308Z,12.30
2023-03-30T18:29:20.450Z,12.20
2023-03-30T18:32:08.486Z,14.30
2023-03-30T18:34:56.494Z,11.90
2023-03-30T18:37:46.587Z,12.80
2023-03-30T18:40:38.096Z,12.00
2023-03-30T18:43:26.660Z,11.80
2023-03-30T18:46:14.745Z,11.60
2023-03-30T18:49:03.246Z,11.70
2023-03-30T18:51:52.222Z,11.50
2023-03-30T18:54:42.137Z,12.00
2023-03-30T18:57:29.699Z,12.70
2023-03-30T19:00:22.224Z,11.50
2023-03-30T19:03:10.287Z,11.50
2023-03-30T19:05:58.727Z,11.50
2023-03-30T19:08:46.435Z,13.10
2023-03-30T19:11:35.608Z,11.50
2023-03-30T19:14:23.055Z,11.50
2023-03-30T19:17:11.852Z,11.60
2023-03-30T19:20:00.182Z,11.60
2023-03-30T19:22:48.094Z,12.50
2023-03-30T19:25:36.357Z,11.60
2023-03-30T19:28:24.972Z,11.70
2023-03-30T19:31:16.368Z,11.60
2023-03-30T19:34:03.921Z,11.90
2023-03-30T19:36:51.680Z,10.40
2023-03-30T19:39:39.549Z,11.90
2023-03-30T19:42:29.574Z,11.90
2023-03-30T19:45:19.183Z,12.00
2023-03-30T19:48:28.967Z,12.70
2023-03-30T19:51:16.994Z,12.00
2023-03-30T19:54:04.598Z,11.90
2023-03-30T19:56:52.477Z,11.80
2023-03-30T19:59:39.804Z,11.60
2023-03-30T20:02:32.060Z,11.50
2023-03-30T20:05:24.019Z,9.70
2023-03-30T20:08:22.954Z,12.70
2023-03-30T20:11:12.666Z,10.80
2023-03-30T20:14:02.815Z,10.60
2023-03-30T20:16:51.469Z,10.50
2023-03-30T20:19:41.056Z,10.50
2023-03-30T20:22:29.141Z,10.30
2023-03-30T20:25:17.733Z,10.20
2023-03-30T20:28:07.820Z,10.10
2023-03-30T20:30:56.786Z,11.10
2023-03-30T20:33:46.863Z,9.90
2023-03-30T20:36:36.562Z,9.80
2023-03-30T20:39:27.240Z,9.80
2023-03-30T20:42:14.690Z,9.50
2023-03-30T20:45:02.034Z,11.60
2023-03-30T20:47:50.344Z,9.30
2023-03-30T20:50:38.320Z,9.20
2023-03-30T20:53:27.566Z,9.50
2023-03-30T20:56:15.167Z,9.10
2023-03-30T20:59:04.027Z,9.10
2023-03-30T21:01:52.345Z,9.20
2023-03-30T21:04:40.420Z,9.00
2023-03-30T21:07:28.026Z,9.00
2023-03-30T21:10:17.816Z,8.90
2023-03-30T21:13:05.262Z,9.00
2023-03-30T21:15:56.609Z,8.90
2023-03-30T21:18:44.511Z,8.90
2023-03-30T21:21:33.841Z,8.90
2023-03-30T21:24:22.423Z,9.00
2023-03-30T21:27:11.323Z,8.80
2023-03-30T21:30:02.125Z,8.80
2023-03-30T21:32:50.292Z,9.00
2023-03-30T21:35:37.830Z,9.00
2023-03-30T21:38:25.896Z,9.20
2023-03-30T21:41:14.477Z,9.10
2023-03-30T21:44:03.608Z,9.20
2023-03-30T21:46:51.447Z,9.50
2023-03-30T21:49:39.782Z,9.20
2023-03-30T21:52:29.051Z,9.50
2023-03-30T21:55:17.241Z,9.50
2023-03-30T21:58:05.818Z,9.70
2023-03-30T22:01:04.937Z,8.80
2023-03-30T22:03:59.399Z,8.20
2023-03-30T22:06:47.886Z,9.80
2023-03-30T22:09:35.511Z,10.00
2023-03-30T22:12:23.139Z,10.00
2023-03-30T22:15:10.988Z,10.10
2023-03-30T22:18:00.407Z,10.10
2023-03-30T22:20:47.951Z,10.20
2023-03-30T22:23:36.179Z,10.90
2023-03-30T22:26:24.292Z,11.70
2023-03-30T22:29:12.403Z,10.30
2023-03-30T22:32:03.554Z,10.30
2023-03-30T22:34:53.298Z,11.30
2023-03-30T22:37:41.444Z,10.80
2023-03-30T22:40:28.817Z,10.20
2023-03-30T22:43:17.231Z,10.10
2023-03-30T22:46:05.911Z,11.90
2023-03-30T22:48:55.991Z,10.00
2023-03-30T22:51:52.655Z,9.80
2023-03-30T22:54:41.512Z,9.80
2023-03-30T22:57:29.760Z,9.70
2023-03-30T23:00:17.998Z,9.60
2023-03-30T23:03:06.421Z,10.40
2023-03-30T23:05:56.074Z,10.20
2023-03-30T23:08:47.592Z,9.70
2023-03-30T23:11:39.889Z,9.80
2023-03-30T23:14:29.002Z,9.70
2023-03-30T23:17:17.603Z,9.70
2023-03-30T23:20:07.020Z,10.20
2023-03-30T23:22:54.482Z,11.00
2023-03-30T23:25:50.620Z,10.00
2023-03-30T23:28:39.583Z,11.20
2023-03-30T23:31:28.014Z,10.00
2023-03-30T23:34:22.348Z,10.10
2023-03-30T23:37:10.150Z,10.10
2023-03-30T23:39:59.055Z,10.20
2023-03-30T23:42:47.886Z,10.30
2023-03-30T23:45:35.461Z,10.30
2023-03-30T23:48:23.337Z,10.30
2023-03-30T23:51:12.485Z,10.40
2023-03-30T23:54:09.111Z,10.40
2023-03-30T23:56:58.728Z,10.80
2023-03-30T23:59:48.450Z,10.40
